Time;durP1;ratioP1;P1;durP2;ratioP2;P2;SDS_P1;SDS_P2;PMS_P1;PMS_P2;Temp;Humidity;BMP_temperature;BMP_pressure;BME280_temperature;BME280_humidity;BME280_pressure;Samples;Min_cycle;Max_cycle;Signal;HPM_P1;HPM_P2
2024/02/13 00:01:56;;;;;;;;;;;;;;;6.85;100.00;97791.00;5072243;28;20292;-78
2024/02/13 00:04:22;;;;;;;;;;;;;;;6.88;100.00;97796.38;5074110;28;20296;-78
2024/02/13 00:06:47;;;;;;;;;;;;;;;6.83;100.00;97782.41;5075679;28;19916;-78
2024/02/13 00:09:13;;;;;;;;;;;;;;;6.82;100.00;97778.91;5075538;28;20384;-77
2024/02/13 00:11:39;;;;;;;;;;;;;;;6.74;100.00;97785.03;5074006;28;19956;-78
2024/02/13 00:14:07;;;;;;;;;;;;;;;6.74;100.00;97785.03;5075165;28;19994;-78
2024/02/13 00:16:35;;;;;;;;;;;;;;;6.74;100.00;97785.03;5057626;28;19912;-78
2024/02/13 00:19:01;;;;;;;;;;;;;;;6.75;100.00;97800.28;5075164;28;19923;-77
2024/02/13 00:21:27;;;;;;;;;;;;;;;6.68;100.00;97803.22;5073840;28;19912;-79
2024/02/13 00:23:52;;;;;;;;;;;;;;;6.67;100.00;97793.44;5057177;28;19912;-76
2024/02/13 00:26:17;;;;;;;;;;;;;;;6.66;100.00;97800.91;5073942;28;19919;-77
2024/02/13 00:28:44;;;;;;;;;;;;;;;6.65;100.00;97793.09;5073767;28;19916;-78
2024/02/13 00:31:09;;;;;;;;;;;;;;;6.69;100.00;97796.53;5073662;28;19912;-78
2024/02/13 00:33:38;;;;;;;;;;;;;;;6.69;100.00;97791.03;5073419;28;20350;-78
2024/02/13 00:36:03;;;;;;;;;;;;;;;6.76;100.00;97788.09;5073472;28;19920;-77
2024/02/13 00:38:31;;;;;;;;;;;;;;;6.81;100.00;97784.84;5074299;28;20003;-78
2024/02/13 00:40:57;;;;;;;;;;;;;;;6.84;100.00;97775.72;5073967;28;19912;-78
2024/02/13 00:43:22;;;;;;;;;;;;;;;6.75;100.00;97775.59;5073693;28;20386;-79
2024/02/13 00:45:48;;;;;;;;;;;;;;;6.64;100.00;97780.56;5073344;28;19913;-78
2024/02/13 00:48:13;;;;;;;;;;;;;;;6.60;100.00;97782.66;5074474;28;20009;-77
2024/02/13 00:50:38;;;;;;;;;;;;;;;6.57;100.00;97786.28;5074661;28;19912;-78
2024/02/13 00:53:05;;;;;;;;;;;;;;;6.52;100.00;97785.56;5073163;28;20717;-78
2024/02/13 00:55:31;;;;;;;;;;;;;;;6.49;100.00;97786.44;5056440;28;19931;-79
2024/02/13 00:57:56;;;;;;;;;;;;;;;6.38;100.00;97790.66;5073171;28;19951;-77
2024/02/13 01:00:22;;;;;;;;;;;;;;;6.32;100.00;97798.66;5073213;28;19916;-78
2024/02/13 01:02:47;;;;;;;;;;;;;;;6.28;100.00;97797.16;5073181;28;20273;-78
2024/02/13 01:05:13;;;;;;;;;;;;;;;6.30;100.00;97794.78;5056489;28;19916;-78
2024/02/13 01:07:38;;;;;;;;;;;;;;;6.33;100.00;97800.16;5072806;28;19921;-78
2024/02/13 01:10:06;;;;;;;;;;;;;;;6.35;100.00;97792.28;5073281;28;19931;-78
2024/02/13 01:12:31;;;;;;;;;;;;;;;6.38;100.00;97793.41;5072947;28;19912;-78
2024/02/13 01:14:56;;;;;;;;;;;;;;;6.43;100.00;97801.13;5073952;28;20395;-79
2024/02/13 01:17:22;;;;;;;;;;;;;;;6.47;100.00;97794.31;5073874;28;19917;-78
2024/02/13 01:19:48;;;;;;;;;;;;;;;6.47;100.00;97793.56;5072851;28;20444;-79
2024/02/13 01:22:14;;;;;;;;;;;;;;;6.36;100.00;97790.31;5072552;28;19917;-78
2024/02/13 01:24:40;;;;;;;;;;;;;;;6.33;100.00;97793.94;5072757;28;19970;-79
2024/02/13 01:27:06;;;;;;;;;;;;;;;6.37;100.00;97803.59;5072201;28;19912;-79
2024/02/13 01:29:31;;;;;;;;;;;;;;;6.49;100.00;97800.16;5073818;28;19923;-78
2024/02/13 01:31:56;;;;;;;;;;;;;;;6.48;100.00;97798.63;5072622;28;19912;-79
2024/02/13 01:34:21;;;;;;;;;;;;;;;6.48;100.00;97798.63;5072258;28;20502;-78
2024/02/13 01:36:47;;;;;;;;;;;;;;;6.47;100.00;97794.31;5072708;28;19920;-79
2024/02/13 01:39:12;;;;;;;;;;;;;;;6.50;100.00;97793.47;5073825;28;20443;-78
2024/02/13 01:41:37;;;;;;;;;;;;;;;6.49;100.00;97791.94;5072379;28;19999;-79
2024/02/13 01:44:03;;;;;;;;;;;;;;;6.48;100.00;97801.38;5072777;28;20384;-78
2024/02/13 01:46:29;;;;;;;;;;;;;;;6.39;100.00;97795.69;5072251;28;19908;-79
2024/02/13 01:48:58;;;;;;;;;;;;;;;6.36;100.00;97799.31;5073795;28;19913;-79
2024/02/13 01:51:27;;;;;;;;;;;;;;;6.34;100.00;97803.69;5072122;28;19920;-79
2024/02/13 01:53:58;;;;;;;;;;;;;;;6.27;100.00;97804.63;5073497;28;20406;-79
2024/02/13 01:56:26;;;;;;;;;;;;;;;6.19;100.00;97816.22;5072230;28;19920;-78
2024/02/13 01:58:52;;;;;;;;;;;;;;;6.34;100.00;97820.16;5073139;28;20004;-78
2024/02/13 02:01:17;;;;;;;;;;;;;;;6.48;100.00;97809.59;5073240;28;20375;-78
2024/02/13 02:03:43;;;;;;;;;;;;;;;6.54;100.00;97823.56;5072094;28;20118;-78
2024/02/13 02:06:09;;;;;;;;;;;;;;;6.57;100.00;97824.69;5071932;28;19917;-78
2024/02/13 02:08:35;;;;;;;;;;;;;;;6.59;100.00;97827.75;5071947;28;19924;-78
2024/02/13 02:11:00;;;;;;;;;;;;;;;6.64;100.00;97829.97;5071886;28;19912;-77
2024/02/13 02:13:27;;;;;;;;;;;;;;;6.63;100.00;97828.47;5071908;28;19919;-77
2024/02/13 02:15:52;;;;;;;;;;;;;;;6.62;100.00;97826.91;5055030;28;19912;-78
2024/02/13 02:18:18;;;;;;;;;;;;;;;6.54;100.00;97818.84;5073353;28;20634;-77
2024/02/13 02:20:43;;;;;;;;;;;;;;;6.46;100.00;97820.22;5071554;28;20418;-77
2024/02/13 02:23:08;;;;;;;;;;;;;;;6.51;100.00;97810.69;5073282;28;19923;-78
2024/02/13 02:25:34;;;;;;;;;;;;;;;6.47;100.00;97818.25;5086415;28;19923;-77
2024/02/13 02:27:59;;;;;;;;;;;;;;;6.49;100.00;97824.88;5063340;28;20277;-76
2024/02/13 02:30:24;;;;;;;;;;;;;;;6.38;100.00;97813.38;5071461;28;20002;-77
2024/02/13 02:32:49;;;;;;;;;;;;;;;6.52;100.00;97824.00;5071224;28;19999;-77
2024/02/13 02:35:18;;;;;;;;;;;;;;;6.67;100.00;97823.63;5071242;28;19912;-78
2024/02/13 02:37:47;;;;;;;;;;;;;;;6.80;100.00;97833.47;5071662;28;19916;-77
2024/02/13 02:40:14;;;;;;;;;;;;;;;6.85;100.00;97834.94;5071077;28;19914;-78
2024/02/13 02:42:39;;;;;;;;;;;;;;;6.90;100.00;97848.13;5071325;28;20372;-77
2024/02/13 02:45:06;;;;;;;;;;;;;;;6.96;100.00;97843.66;5071004;28;19917;-77
2024/02/13 02:47:31;;;;;;;;;;;;;;;6.98;100.00;97846.75;5071211;28;19913;-76
2024/02/13 02:49:57;;;;;;;;;;;;;;;6.87;100.00;97830.53;5070720;28;19912;-78
2024/02/13 02:52:22;;;;;;;;;;;;;;;6.83;100.00;97842.81;5071196;28;19912;-76
2024/02/13 02:54:47;;;;;;;;;;;;;;;6.84;100.00;97847.88;5070689;28;20285;-77
2024/02/13 02:57:12;;;;;;;;;;;;;;;6.81;100.00;97845.25;5071599;28;19967;-78
2024/02/13 02:59:38;;;;;;;;;;;;;;;6.86;100.00;97852.94;5070744;28;19973;-78
2024/02/13 03:02:04;;;;;;;;;;;;;;;6.83;100.00;97859.28;5072326;28;19965;-76
2024/02/13 03:04:29;;;;;;;;;;;;;;;6.68;100.00;97845.16;5070535;28;19912;-78
2024/02/13 03:06:54;;;;;;;;;;;;;;;6.68;100.00;97852.63;5070516;28;19917;-77
2024/02/13 03:09:20;;;;;;;;;;;;;;;6.73;100.00;97860.34;5072297;28;19917;-78
2024/02/13 03:11:47;;;;;;;;;;;;;;;6.76;100.00;97852.00;5071779;28;19987;-77
2024/02/13 03:14:12;;;;;;;;;;;;;;;6.69;100.00;97854.19;5070754;28;19916;-78
2024/02/13 03:16:40;;;;;;;;;;;;;;;6.68;100.00;97853.41;5070565;28;20281;-78
2024/02/13 03:19:05;;;;;;;;;;;;;;;6.76;100.00;97856.72;5070479;28;19994;-79
2024/02/13 03:21:35;;;;;;;;;;;;;;;6.83;100.00;97859.28;5070882;28;19971;-77
2024/02/13 03:24:00;;;;;;;;;;;;;;;6.85;100.00;97873.38;5070541;28;19926;-77
2024/02/13 03:26:26;;;;;;;;;;;;;;;6.77;100.00;97861.00;5070344;28;20307;-77
2024/02/13 03:28:51;;;;;;;;;;;;;;;6.81;100.00;97864.47;5071488;28;19912;-78
2024/02/13 03:31:16;;;;;;;;;;;;;;;6.72;100.00;97870.53;5071853;28;20746;-78
2024/02/13 03:33:41;;;;;;;;;;;;;;;6.45;100.00;97868.06;5070292;28;19914;-77
2024/02/13 03:36:07;;;;;;;;;;;;;;;6.26;100.00;97876.41;5069619;28;19938;-77
2024/02/13 03:38:32;;;;;;;;;;;;;;;6.16;100.00;97883.66;5070204;28;19973;-78
2024/02/13 03:40:59;;;;;;;;;;;;;;;6.18;100.00;97885.97;5070488;28;20003;-77
2024/02/13 03:43:25;;;;;;;;;;;;;;;6.11;100.00;97882.19;5071867;28;19912;-78
2024/02/13 03:45:50;;;;;;;;;;;;;;;6.16;100.00;97883.66;5070619;28;20408;-78
2024/02/13 03:48:16;;;;;;;;;;;;;;;6.16;100.00;97894.63;5070242;28;19912;-78
2024/02/13 03:50:42;;;;;;;;;;;;;;;6.22;100.00;97887.44;5070148;28;19925;-77
2024/02/13 03:53:07;;;;;;;;;;;;;;;6.23;100.00;97886.25;5070070;28;19920;-78
2024/02/13 03:55:32;;;;;;;;;;;;;;;6.26;100.00;97890.09;5071767;28;19912;-77
2024/02/13 03:57:57;;;;;;;;;;;;;;;6.31;100.00;97897.81;5071883;28;19962;-77
2024/02/13 04:00:23;;;;;;;;;;;;;;;6.35;100.00;97893.78;5070497;28;20394;-78
2024/02/13 04:02:48;;;;;;;;;;;;;;;6.26;100.00;97893.63;5069955;28;20380;-78
2024/02/13 04:05:14;;;;;;;;;;;;;;;6.22;100.00;97898.41;5070407;28;19966;-79
2024/02/13 04:07:40;;;;;;;;;;;;;;;6.21;100.00;97896.09;5070100;28;20312;-77
2024/02/13 04:10:05;;;;;;;;;;;;;;;6.12;100.00;97893.94;5071761;28;19920;-78
2024/02/13 04:12:31;;;;;;;;;;;;;;;6.07;100.00;97905.41;5070321;28;19943;-77
2024/02/13 04:14:56;;;;;;;;;;;;;;;6.21;100.00;97901.59;5070229;28;20346;-77
2024/02/13 04:17:21;;;;;;;;;;;;;;;6.27;100.00;97900.63;5070060;28;19919;-78
2024/02/13 04:19:46;;;;;;;;;;;;;;;6.35;100.00;97902.03;5070505;28;20380;-77
2024/02/13 04:22:12;;;;;;;;;;;;;;;6.46;100.00;97902.53;5071148;28;20508;-77
2024/02/13 04:24:37;;;;;;;;;;;;;;;6.55;100.00;97915.66;5071250;28;19916;-78
2024/02/13 04:27:03;;;;;;;;;;;;;;;6.57;100.00;97910.50;5070056;28;20419;-77
2024/02/13 04:29:28;;;;;;;;;;;;;;;6.54;100.00;97917.66;5070400;28;19912;-77
2024/02/13 04:31:53;;;;;;;;;;;;;;;6.49;100.00;97920.13;5070220;28;19923;-78
2024/02/13 04:34:19;;;;;;;;;;;;;;;6.35;100.00;97928.69;5070772;28;19912;-77
2024/02/13 04:36:44;;;;;;;;;;;;;;;6.19;100.00;97918.47;5080117;28;20014;-79
2024/02/13 04:39:09;;;;;;;;;;;;;;;6.09;100.00;97924.94;5082931;28;19912;-77
2024/02/13 04:41:34;;;;;;;;;;;;;;;6.05;100.00;97922.28;5071507;28;19918;-78
2024/02/13 04:44:00;;;;;;;;;;;;;;;6.03;100.00;97919.19;5069800;28;19919;-76
2024/02/13 04:46:25;;;;;;;;;;;;;;;6.22;100.00;97917.59;5069314;28;20459;-77
2024/02/13 04:48:53;;;;;;;;;;;;;;;6.28;100.00;97923.34;5073101;28;20007;-77
2024/02/13 04:51:18;;;;;;;;;;;;;;;6.31;100.00;97919.78;5073706;28;19913;-79
2024/02/13 04:53:43;;;;;;;;;;;;;;;6.23;100.00;97921.13;5074820;28;19916;-78
2024/02/13 04:56:09;;;;;;;;;;;;;;;6.27;100.00;97919.84;5073162;28;19913;-78
2024/02/13 04:58:34;;;;;;;;;;;;;;;6.23;100.00;97926.59;5074814;28;19919;-78
2024/02/13 05:01:04;;;;;;;;;;;;;;;6.24;100.00;97926.19;5073165;28;19920;-78
2024/02/13 05:03:42;;;;;;;;;;;;;;;6.33;100.00;97933.84;5056776;28;19908;-77
2024/02/13 05:08:55;;;;;;;;;;;;;;;6.39;100.00;97934.88;5074157;28;19928;-78
2024/02/13 05:11:20;;;;;;;;;;;;;;;6.33;100.00;97944.81;5073343;28;19912;-78
2024/02/13 05:13:46;;;;;;;;;;;;;;;6.42;100.00;97932.03;5073071;28;19919;-78
2024/02/13 05:16:12;;;;;;;;;;;;;;;6.52;100.00;97936.50;5072803;28;19919;-78
2024/02/13 05:18:38;;;;;;;;;;;;;;;6.66;100.00;97932.66;5072979;28;19955;-79
2024/02/13 05:21:04;;;;;;;;;;;;;;;6.79;100.00;97939.00;5073167;28;19930;-78
2024/02/13 05:23:29;;;;;;;;;;;;;;;6.87;100.00;97937.59;5072912;28;19999;-79
2024/02/13 05:25:55;;;;;;;;;;;;;;;6.95;100.00;97943.69;5072875;28;19912;-79
2024/02/13 05:28:20;;;;;;;;;;;;;;;7.09;100.00;97940.59;5072594;28;19913;-79
2024/02/13 05:30:46;;;;;;;;;;;;;;;7.16;100.00;97945.16;5072728;28;20011;-79
2024/02/13 05:33:11;;;;;;;;;;;;;;;7.16;100.00;97945.16;5073737;28;19916;-79
2024/02/13 05:35:38;;;;;;;;;;;;;;;7.14;100.00;97950.28;5072787;28;19913;-78
2024/02/13 05:38:04;;;;;;;;;;;;;;;7.19;100.00;97949.75;5072506;28;19951;-78
2024/02/13 05:40:29;;;;;;;;;;;;;;;7.31;100.00;97960.03;5072542;28;20384;-78
2024/02/13 05:42:55;;;;;;;;;;;;;;;7.46;100.00;97960.44;5073454;28;20007;-78
2024/02/13 05:45:20;;;;;;;;;;;;;;;7.58;100.00;97965.22;5072636;28;20696;-78
2024/02/13 05:47:48;;;;;;;;;;;;;;;7.62;100.00;97963.16;5073628;28;19916;-78
2024/02/13 05:50:16;;;;;;;;;;;;;;;7.63;100.00;97961.94;5055804;28;19912;-78
2024/02/13 05:52:41;;;;;;;;;;;;;;;7.77;100.00;97975.31;5072201;28;20000;-79
2024/02/13 05:55:08;;;;;;;;;;;;;;;7.87;100.00;97968.72;5055286;28;19970;-78
2024/02/13 05:57:33;;;;;;;;;;;;;;;8.00;100.00;97968.75;5072053;28;19912;-79
2024/02/13 05:59:58;;;;;;;;;;;;;;;8.08;100.00;97976.34;5072769;28;19919;-77
2024/02/13 06:02:25;;;;;;;;;;;;;;;8.18;100.00;97980.81;5073494;28;19993;-77
2024/02/13 06:04:51;;;;;;;;;;;;;;;8.32;100.00;97981.63;5072048;28;19920;-79
2024/02/13 06:07:16;;;;;;;;;;;;;;;8.40;100.00;97982.94;5068213;28;19932;-77
2024/02/13 06:09:42;;;;;;;;;;;;;;;8.44;100.00;97986.34;5068503;28;20376;-77
2024/02/13 06:12:08;;;;;;;;;;;;;;;8.57;100.00;97998.13;5053015;28;20012;-79
2024/02/13 06:14:33;;;;;;;;;;;;;;;8.65;100.00;97990.44;5068937;28;19912;-78
2024/02/13 06:16:58;;;;;;;;;;;;;;;8.70;100.00;98000.91;5068196;28;19912;-78
2024/02/13 06:19:24;;;;;;;;;;;;;;;8.77;100.00;97997.94;5039987;28;20388;-78
2024/02/13 06:21:50;;;;;;;;;;;;;;;8.88;98.53;98010.16;5068494;28;19920;-77
2024/02/13 06:24:15;;;;;;;;;;;;;;;8.90;99.59;98004.97;5040419;28;19921;-79
2024/02/13 06:26:41;;;;;;;;;;;;;;;9.00;98.75;98011.34;5052720;28;20296;-78
2024/02/13 06:29:08;;;;;;;;;;;;;;;9.07;98.81;98011.13;5068402;28;20403;-77
2024/02/13 06:31:33;;;;;;;;;;;;;;;9.17;96.95;98006.47;5051395;28;20403;-77
2024/02/13 06:33:59;;;;;;;;;;;;;;;9.28;92.82;98015.91;5051802;28;20003;-78
2024/02/13 06:36:26;;;;;;;;;;;;;;;9.45;92.46;98021.31;5051417;28;19913;-76
2024/02/13 06:38:52;;;;;;;;;;;;;;;9.52;89.95;98027.38;5052520;28;19925;-78
2024/02/13 06:41:17;;;;;;;;;;;;;;;9.65;89.39;98027.28;5067846;28;19927;-77
2024/02/13 06:43:42;;;;;;;;;;;;;;;9.78;89.26;98028.81;5051512;28;19917;-79
2024/02/13 06:46:09;;;;;;;;;;;;;;;9.82;88.20;98016.88;5068395;28;20570;-79
2024/02/13 06:48:34;;;;;;;;;;;;;;;9.96;82.80;98021.88;5053178;28;20011;-77
2024/02/13 06:51:00;;;;;;;;;;;;;;;9.97;79.78;98021.44;5091525;28;19908;-79
2024/02/13 06:53:26;;;;;;;;;;;;;;;10.02;77.60;98026.38;5053238;28;19920;-78
2024/02/13 06:55:52;;;;;;;;;;;;;;;10.10;76.68;98024.91;5052316;28;19978;-79
2024/02/13 06:58:18;;;;;;;;;;;;;;;10.22;75.88;98014.28;5038635;28;20363;-79
2024/02/13 07:00:43;;;;;;;;;;;;;;;10.26;77.92;98025.94;5067735;28;19963;-79
2024/02/13 07:03:09;;;;;;;;;;;;;;;10.33;75.20;98028.44;5068404;28;20357;-79
2024/02/13 07:05:35;;;;;;;;;;;;;;;10.46;72.25;98034.69;5067985;28;20009;-78
2024/02/13 07:08:00;;;;;;;;;;;;;;;10.56;71.51;98042.56;5061223;28;19999;-79
2024/02/13 07:10:25;;;;;;;;;;;;;;;10.63;71.34;98040.75;5070846;28;20066;-78
2024/02/13 07:12:51;;;;;;;;;;;;;;;10.61;71.00;98030.91;5076593;28;19901;-77
2024/02/13 07:15:16;;;;;;;;;;;;;;;10.65;71.74;98046.59;5044345;28;20371;-78
2024/02/13 07:17:42;;;;;;;;;;;;;;;10.70;71.76;98034.94;5071911;28;20372;-79
2024/02/13 07:20:10;;;;;;;;;;;;;;;10.75;73.77;98034.34;5070873;28;19938;-79
2024/02/13 07:22:37;;;;;;;;;;;;;;;10.77;71.19;98038.22;5070383;28;19912;-80
2024/02/13 07:25:02;;;;;;;;;;;;;;;10.81;71.55;98041.59;5071901;28;20300;-79
2024/02/13 07:27:28;;;;;;;;;;;;;;;10.85;71.60;98038.72;5070632;28;20430;-78
2024/02/13 07:29:55;;;;;;;;;;;;;;;10.88;71.50;98046.09;5069535;28;19919;-79
2024/02/13 07:32:20;;;;;;;;;;;;;;;10.98;71.74;98042.91;5069052;28;19912;-78
2024/02/13 07:34:47;;;;;;;;;;;;;;;11.05;71.35;98028.03;5069344;28;19916;-79
2024/02/13 07:37:12;;;;;;;;;;;;;;;11.06;67.83;98026.81;5069394;28;19912;-80
2024/02/13 07:39:38;;;;;;;;;;;;;;;11.15;69.98;98026.81;5051916;28;20011;-79
2024/02/13 07:42:04;;;;;;;;;;;;;;;11.16;68.45;98030.34;5070607;28;19970;-79
2024/02/13 07:44:30;;;;;;;;;;;;;;;11.25;68.40;98033.94;5071268;28;19969;-77
2024/02/13 07:46:57;;;;;;;;;;;;;;;11.26;67.05;98018.88;5070240;28;19908;-76
2024/02/13 07:49:25;;;;;;;;;;;;;;;11.39;68.24;98021.53;5070079;28;19908;-79
2024/02/13 07:51:51;;;;;;;;;;;;;;;11.33;68.32;98018.56;5071855;28;19908;-78
2024/02/13 07:54:17;;;;;;;;;;;;;;;11.47;67.52;98024.75;5059068;28;19920;-78
2024/02/13 07:56:42;;;;;;;;;;;;;;;11.56;67.57;98019.25;5053751;28;19908;-79
2024/02/13 07:59:09;;;;;;;;;;;;;;;11.49;64.36;98011.22;5070551;28;19916;-79
2024/02/13 08:01:34;;;;;;;;;;;;;;;11.61;66.64;98024.94;5070387;28;19952;-78
2024/02/13 08:04:00;;;;;;;;;;;;;;;11.57;64.03;98023.53;5070009;28;19962;-77
2024/02/13 08:06:26;;;;;;;;;;;;;;;11.69;64.37;98028.16;5070058;28;19927;-80
2024/02/13 08:08:51;;;;;;;;;;;;;;;11.69;64.46;98030.94;5069636;28;19966;-78
2024/02/13 08:11:16;;;;;;;;;;;;;;;11.72;63.32;98028.00;5070126;28;19912;-79
2024/02/13 08:13:42;;;;;;;;;;;;;;;11.80;61.93;98032.06;5069833;28;19908;-78
2024/02/13 08:16:08;;;;;;;;;;;;;;;11.93;62.90;98034.66;5068932;28;20372;-79
2024/02/13 08:18:34;;;;;;;;;;;;;;;11.94;62.31;98035.41;5069834;28;20446;-78
2024/02/13 08:21:00;;;;;;;;;;;;;;;12.01;63.01;98035.88;5070992;28;20265;-77
2024/02/13 08:23:25;;;;;;;;;;;;;;;11.90;61.33;98035.56;5072216;28;19908;-78
2024/02/13 08:25:51;;;;;;;;;;;;;;;11.91;60.86;98028.81;5074083;28;19908;-79
2024/02/13 08:28:16;;;;;;;;;;;;;;;11.93;61.89;98020.81;5075118;28;19958;-78
2024/02/13 08:30:42;;;;;;;;;;;;;;;11.98;59.87;98030.50;5061612;28;19999;-77
2024/02/13 08:33:07;;;;;;;;;;;;;;;12.01;61.44;98035.88;5074908;28;19919;-79
2024/02/13 08:35:32;;;;;;;;;;;;;;;11.97;62.12;98035.28;5074419;28;19916;-77
2024/02/13 08:37:57;;;;;;;;;;;;;;;11.85;59.87;98030.66;5074817;28;19928;-79
2024/02/13 08:40:23;;;;;;;;;;;;;;;11.88;59.75;98035.25;5073034;28;20368;-78
2024/02/13 08:42:48;;;;;;;;;;;;;;;12.01;58.70;98038.66;5073137;28;19912;-77
2024/02/13 08:45:13;;;;;;;;;;;;;;;12.21;59.58;98036.19;5073228;28;19978;-79
2024/02/13 08:47:39;;;;;;;;;;;;;;;12.42;59.76;98039.22;5074599;28;19912;-79
2024/02/13 08:50:05;;;;;;;;;;;;;;;12.46;58.63;98031.53;5074465;28;19915;-78
2024/02/13 08:52:31;;;;;;;;;;;;;;;12.52;56.31;98040.75;5073134;28;20020;-77
2024/02/13 08:54:57;;;;;;;;;;;;;;;12.58;55.93;98036.09;5055972;28;19919;-79
2024/02/13 08:57:22;;;;;;;;;;;;;;;12.63;55.94;98036.25;5073240;28;19912;-78
2024/02/13 08:59:47;;;;;;;;;;;;;;;12.73;56.75;98039.75;5073014;28;20386;-78
2024/02/13 09:02:13;;;;;;;;;;;;;;;12.90;57.28;98038.13;5091488;28;19954;-79
2024/02/13 09:04:38;;;;;;;;;;;;;;;12.85;54.99;98051.88;5077237;28;19916;-77
2024/02/13 09:07:03;;;;;;;;;;;;;;;12.83;55.33;98046.03;5072891;28;19913;-79
2024/02/13 09:09:32;;;;;;;;;;;;;;;13.01;56.40;98049.53;5074032;28;19966;-78
2024/02/13 09:11:57;;;;;;;;;;;;;;;13.02;54.41;98041.94;5074064;28;20055;-79
2024/02/13 09:14:23;;;;;;;;;;;;;;;13.22;54.23;98041.44;5073720;28;20016;-77
2024/02/13 09:16:48;;;;;;;;;;;;;;;13.33;53.14;98053.53;5073748;28;19951;-78
2024/02/13 09:19:13;;;;;;;;;;;;;;;13.42;53.33;98045.19;5073931;28;20285;-78
2024/02/13 09:21:40;;;;;;;;;;;;;;;13.27;51.95;98049.09;5072427;28;20386;-78
2024/02/13 09:24:05;;;;;;;;;;;;;;;13.16;51.41;98059.94;5073751;28;19912;-78
2024/02/13 09:26:31;;;;;;;;;;;;;;;13.20;52.95;98060.56;5073823;28;19912;-78
2024/02/13 09:28:57;;;;;;;;;;;;;;;13.21;53.61;98051.75;5072473;28;19963;-78
2024/02/13 09:31:22;;;;;;;;;;;;;;;13.26;53.64;98053.13;5072457;28;19945;-78
2024/02/13 09:33:47;;;;;;;;;;;;;;;13.32;53.11;98045.72;5071983;28;20386;-78
2024/02/13 09:36:14;;;;;;;;;;;;;;;13.29;53.47;98052.19;5072328;28;20006;-78
2024/02/13 09:38:40;;;;;;;;;;;;;;;13.42;54.58;98044.41;5072069;28;19912;-79
2024/02/13 09:41:05;;;;;;;;;;;;;;;13.59;52.24;98053.09;5068193;28;19913;-78
2024/02/13 09:43:31;;;;;;;;;;;;;;;13.56;52.69;98043.72;5064734;28;19918;-78
2024/02/13 09:45:57;;;;;;;;;;;;;;;13.54;52.06;98045.41;5073437;28;19919;-78
2024/02/13 09:48:25;;;;;;;;;;;;;;;13.61;51.96;98048.63;5056611;28;19912;-78
2024/02/13 09:50:50;;;;;;;;;;;;;;;13.63;51.06;98048.88;5072205;28;19908;-79
2024/02/13 09:53:19;;;;;;;;;;;;;;;13.65;50.23;98043.63;5071931;28;19918;-78
2024/02/13 09:55:45;;;;;;;;;;;;;;;13.64;50.15;98044.09;5055199;28;20023;-78
2024/02/13 09:58:10;;;;;;;;;;;;;;;13.73;49.62;98035.72;5055233;28;19947;-78
2024/02/13 10:00:35;;;;;;;;;;;;;;;13.57;49.26;98039.69;5073343;28;19991;-78
2024/02/13 10:03:02;;;;;;;;;;;;;;;13.57;49.88;98039.69;5071751;28;19909;-78
2024/02/13 10:05:27;;;;;;;;;;;;;;;13.50;50.37;98042.84;5073025;28;19909;-77
2024/02/13 10:07:53;;;;;;;;;;;;;;;13.37;50.17;98047.84;5072838;28;20277;-77
2024/02/13 10:10:19;;;;;;;;;;;;;;;13.37;49.87;98048.59;5071755;28;19920;-78
2024/02/13 10:12:48;;;;;;;;;;;;;;;13.24;50.03;98039.72;5069780;28;19927;-79
2024/02/13 10:15:13;;;;;;;;;;;;;;;13.10;50.66;98048.69;5072233;28;20283;-77
2024/02/13 10:17:40;;;;;;;;;;;;;;;13.17;51.20;98042.84;5067341;28;19909;-77
2024/02/13 10:20:09;;;;;;;;;;;;;;;13.14;50.80;98040.25;5049277;28;19998;-78
2024/02/13 10:22:34;;;;;;;;;;;;;;;13.12;51.03;98056.56;5071908;28;20423;-77
2024/02/13 10:25:00;;;;;;;;;;;;;;;13.03;51.19;98049.03;5072150;28;19961;-78
2024/02/13 10:27:27;;;;;;;;;;;;;;;13.01;50.28;98052.28;5073301;28;20304;-77
2024/02/13 10:29:52;;;;;;;;;;;;;;;13.32;51.49;98045.72;5072060;28;19912;-77
2024/02/13 10:32:17;;;;;;;;;;;;;;;13.60;51.41;98035.19;5072858;28;20069;-76
2024/02/13 10:34:42;;;;;;;;;;;;;;;14.02;51.17;98032.25;5073040;28;19908;-78
2024/02/13 10:37:11;;;;;;;;;;;;;;;14.15;49.26;98027.22;5071320;28;20388;-78
2024/02/13 10:39:36;;;;;;;;;;;;;;;14.05;49.58;98020.19;5071431;28;19970;-78
2024/02/13 10:42:07;;;;;;;;;;;;;;;14.25;49.91;98029.41;5071594;28;19943;-77
2024/02/13 10:44:38;;;;;;;;;;;;;;;14.21;48.70;98030.84;5062977;28;20880;-78
2024/02/13 10:47:07;;;;;;;;;;;;;;;14.00;47.88;98035.50;5053472;28;20305;-78
2024/02/13 10:49:33;;;;;;;;;;;;;;;14.03;47.96;98037.34;5052030;28;19942;-78
2024/02/13 10:51:59;;;;;;;;;;;;;;;14.17;48.61;98038.59;5066519;28;19942;-76
2024/02/13 10:54:25;;;;;;;;;;;;;;;14.20;48.75;98038.44;5067319;28;21040;-79
2024/02/13 10:56:52;;;;;;;;;;;;;;;14.25;48.58;98034.97;5067807;28;19916;-77
2024/02/13 10:59:21;;;;;;;;;;;;;;;14.20;50.46;98035.66;5062932;28;20347;-78
2024/02/13 11:01:47;;;;;;;;;;;;;;;14.03;49.54;98036.56;5051847;28;19920;-78
2024/02/13 11:04:12;;;;;;;;;;;;;;;13.92;49.32;98030.81;5068763;28;19912;-77
2024/02/13 11:06:38;;;;;;;;;;;;;;;13.78;48.53;98024.75;5048791;28;19920;-78
2024/02/13 11:09:12;;;;;;;;;;;;;;;13.61;50.01;98036.75;5074777;28;20771;-77
2024/02/13 11:11:37;;;;;;;;;;;;;;;13.45;50.02;98030.34;5067559;28;19967;-77
2024/02/13 11:14:13;;;;;;;;;;;;;;;13.49;52.01;98026.66;5062312;28;19924;-78
2024/02/13 11:16:38;;;;;;;;;;;;;;;13.36;50.76;98035.97;5061126;28;19939;-77
2024/02/13 11:19:03;;;;;;;;;;;;;;;13.38;50.70;98033.47;5062510;28;20007;-78
2024/02/13 11:21:29;;;;;;;;;;;;;;;13.29;50.49;98030.00;5046370;28;20384;-77
2024/02/13 11:23:58;;;;;;;;;;;;;;;12.93;51.20;98040.00;5058340;28;20355;-77
2024/02/13 11:26:30;;;;;;;;;;;;;;;12.89;52.97;98033.09;5061401;28;19932;-78
2024/02/13 11:28:56;;;;;;;;;;;;;;;12.92;54.29;98029.38;5063594;28;20388;-77
2024/02/13 11:31:23;;;;;;;;;;;;;;;12.84;54.00;98030.97;5045912;28;19924;-81
2024/02/13 11:34:04;;;;;;;;;;;;;;;12.71;54.74;98036.69;5048292;28;19924;-78
2024/02/13 11:36:34;;;;;;;;;;;;;;;12.60;54.99;98023.31;5045521;28;19925;-80
2024/02/13 11:39:02;;;;;;;;;;;;;;;12.58;54.94;98017.47;5044508;28;19921;-77
2024/02/13 11:41:30;;;;;;;;;;;;;;;12.58;54.32;98027.78;5060577;28;19927;-77
2024/02/13 11:44:03;;;;;;;;;;;;;;;12.47;53.26;98025.53;5059203;28;19921;-77
2024/02/13 11:46:29;;;;;;;;;;;;;;;12.44;52.04;98015.34;5058240;28;19961;-78
2024/02/13 11:48:58;;;;;;;;;;;;;;;12.35;51.09;98025.69;5062257;28;20456;-78
2024/02/13 11:51:24;;;;;;;;;;;;;;;12.39;51.78;98020.75;5065380;28;19974;-78
2024/02/13 11:53:49;;;;;;;;;;;;;;;12.34;51.13;98022.16;5051234;28;19943;-77
2024/02/13 11:56:15;;;;;;;;;;;;;;;12.51;53.32;98023.34;5065958;28;20369;-77
2024/02/13 11:58:40;;;;;;;;;;;;;;;12.53;51.45;98022.88;5052767;28;19960;-78
2024/02/13 12:01:06;;;;;;;;;;;;;;;12.55;51.67;98032.25;5070781;28;20011;-79
2024/02/13 12:03:38;;;;;;;;;;;;;;;12.61;52.48;98030.41;5055728;28;19924;-80
2024/02/13 12:06:06;;;;;;;;;;;;;;;12.73;53.00;98036.22;5045639;28;20021;-78
2024/02/13 12:08:32;;;;;;;;;;;;;;;12.76;52.60;98030.50;5067410;28;20027;-78
2024/02/13 12:11:00;;;;;;;;;;;;;;;12.75;52.05;98026.19;5070932;28;20427;-77
2024/02/13 12:13:26;;;;;;;;;;;;;;;12.78;52.72;98021.75;5054039;28;19927;-78
2024/02/13 12:15:51;;;;;;;;;;;;;;;12.75;51.56;98019.88;5054053;28;19927;-77
2024/02/13 12:18:17;;;;;;;;;;;;;;;12.82;52.68;98031.41;5054177;28;20393;-78
2024/02/13 12:20:52;;;;;;;;;;;;;;;12.75;51.67;98017.88;5054143;28;20419;-80
2024/02/13 12:23:17;;;;;;;;;;;;;;;12.61;50.52;98027.63;5070002;28;19988;-79
2024/02/13 12:25:45;;;;;;;;;;;;;;;12.57;51.09;98029.03;5070603;28;19960;-79
2024/02/13 12:28:12;;;;;;;;;;;;;;;12.41;52.73;98026.63;5054609;28;19938;-78
2024/02/13 12:30:38;;;;;;;;;;;;;;;12.28;52.76;98032.31;5070012;28;19927;-79
2024/02/13 12:33:07;;;;;;;;;;;;;;;12.31;53.32;98036.94;5055115;28;19917;-78
2024/02/13 12:35:36;;;;;;;;;;;;;;;12.33;53.41;98028.16;5053310;28;20400;-78
2024/02/13 12:38:12;;;;;;;;;;;;;;;12.44;53.66;98034.75;5070011;28;19913;-78
2024/02/13 12:40:38;;;;;;;;;;;;;;;12.43;52.64;98037.97;5068403;28;20293;-77
2024/02/13 12:43:04;;;;;;;;;;;;;;;12.41;53.46;98041.22;5068503;28;19924;-79
2024/02/13 12:45:30;;;;;;;;;;;;;;;12.29;53.89;98036.63;5069245;28;19913;-78